createdAt,value
2023-04-06T00:01:05.427Z,2.90
2023-04-06T00:03:32.486Z,3.30
2023-04-06T00:05:59.578Z,3.20
2023-04-06T00:08:27.933Z,2.30
2023-04-06T00:10:55.283Z,3.70
2023-04-06T00:13:22.508Z,2.70
2023-04-06T00:15:49.478Z,3.30
2023-04-06T00:18:16.496Z,3.70
2023-04-06T00:20:43.497Z,2.40
2023-04-06T00:23:10.523Z,3.30
2023-04-06T00:25:37.452Z,3.60
2023-04-06T00:28:04.601Z,3.30
2023-04-06T00:30:31.636Z,2.20
2023-04-06T00:32:58.516Z,4.40
2023-04-06T00:35:25.676Z,3.60
2023-04-06T00:37:52.644Z,3.90
2023-04-06T00:40:19.680Z,2.30
2023-04-06T00:42:46.752Z,2.20
2023-04-06T00:45:13.787Z,4.20
2023-04-06T00:47:40.935Z,2.30
2023-04-06T00:50:08.584Z,3.00
2023-04-06T00:52:36.711Z,2.30
2023-04-06T00:55:04.669Z,3.50
2023-04-06T00:57:32.707Z,2.20
2023-04-06T00:59:59.798Z,3.80
2023-04-06T01:02:27.217Z,3.50
2023-04-06T01:04:55.394Z,3.70
2023-04-06T01:07:22.499Z,2.40
2023-04-06T01:09:49.483Z,2.60
2023-04-06T01:12:16.515Z,3.90
2023-04-06T01:14:43.607Z,3.70
2023-04-06T01:17:10.850Z,3.30
2023-04-06T01:19:38.336Z,3.30
2023-04-06T01:22:05.472Z,2.30
2023-04-06T01:24:33.088Z,3.40
2023-04-06T01:27:01.646Z,3.20
2023-04-06T01:29:28.640Z,2.90
2023-04-06T01:31:55.579Z,2.00
2023-04-06T01:34:22.537Z,2.10
2023-04-06T01:36:49.469Z,2.20
2023-04-06T01:39:16.643Z,1.80
2023-04-06T01:41:43.648Z,4.00
2023-04-06T01:44:10.593Z,4.70
2023-04-06T01:46:37.538Z,2.50
2023-04-06T01:49:04.476Z,2.40
2023-04-06T01:51:31.866Z,1.70
2023-04-06T01:53:58.850Z,1.80
2023-04-06T01:56:26.351Z,2.80
2023-04-06T01:58:53.366Z,2.10
2023-04-06T02:01:20.636Z,1.70
2023-04-06T02:03:47.711Z,2.00
2023-04-06T02:06:14.714Z,3.90
2023-04-06T02:08:41.648Z,2.90
2023-04-06T02:11:08.999Z,2.60
2023-04-06T02:13:35.950Z,2.50
2023-04-06T02:16:03.766Z,2.00
2023-04-06T02:18:33.940Z,2.80
2023-04-06T02:21:01.701Z,1.90
2023-04-06T02:23:28.776Z,3.00
2023-04-06T02:25:55.792Z,3.30
2023-04-06T02:28:22.717Z,2.60
2023-04-06T02:30:49.697Z,2.70
2023-04-06T02:33:16.707Z,3.00
2023-04-06T02:35:47.138Z,1.90
2023-04-06T02:38:14.028Z,1.00
2023-04-06T02:40:40.982Z,2.80
2023-04-06T02:43:07.966Z,3.00
2023-04-06T02:45:37.148Z,2.70
2023-04-06T02:48:04.513Z,2.50
2023-04-06T02:50:31.724Z,0.90
2023-04-06T02:52:58.656Z,3.40
2023-04-06T02:55:25.904Z,1.90
2023-04-06T02:57:52.898Z,2.10
2023-04-06T03:00:20.686Z,0.80
2023-04-06T03:02:47.678Z,0.80
2023-04-06T03:05:14.701Z,2.30
2023-04-06T03:07:41.652Z,0.70
2023-04-06T03:10:10.488Z,2.50
2023-04-06T03:12:37.531Z,0.60
2023-04-06T03:15:05.124Z,3.20
2023-04-06T03:17:32.044Z,0.50
2023-04-06T03:19:59.083Z,1.60
2023-04-06T03:22:26.080Z,2.40
2023-04-06T03:24:52.952Z,2.10
2023-04-06T03:27:19.887Z,2.10
2023-04-06T03:29:46.942Z,0.60
2023-04-06T03:32:13.941Z,0.60
2023-04-06T03:34:40.959Z,2.40
2023-04-06T03:37:10.190Z,2.80
2023-04-06T03:39:37.972Z,2.60
2023-04-06T03:42:05.337Z,2.20
2023-04-06T03:44:32.762Z,0.40
2023-04-06T03:46:59.751Z,0.50
2023-04-06T03:49:26.799Z,2.10
2023-04-06T03:51:54.562Z,1.30
2023-04-06T03:54:21.545Z,0.60
2023-04-06T03:56:48.794Z,2.50
2023-04-06T03:59:16.279Z,2.30
2023-04-06T04:01:43.285Z,1.50
2023-04-06T04:04:11.171Z,2.10
2023-04-06T04:06:38.256Z,1.60
2023-04-06T04:09:05.222Z,2.20
2023-04-06T04:11:32.132Z,3.40
2023-04-06T04:13:59.071Z,2.70
2023-04-06T04:16:26.278Z,1.70
2023-04-06T04:18:53.278Z,2.60
2023-04-06T04:21:20.310Z,1.80
2023-04-06T04:23:47.446Z,2.40
2023-04-06T04:26:14.363Z,2.90
2023-04-06T04:28:41.329Z,3.50
2023-04-06T04:31:08.239Z,2.30
2023-04-06T04:33:35.116Z,1.90
2023-04-06T04:36:02.067Z,2.50
2023-04-06T04:38:29.091Z,2.80
2023-04-06T04:40:56.073Z,2.40
2023-04-06T04:43:23.221Z,2.40
2023-04-06T04:45:50.284Z,1.00
2023-04-06T04:48:17.267Z,2.60
2023-04-06T04:50:44.326Z,1.40
2023-04-06T04:53:11.414Z,2.70
2023-04-06T04:55:40.846Z,1.30
2023-04-06T04:58:09.901Z,2.10
2023-04-06T05:00:36.939Z,1.60
2023-04-06T05:03:06.067Z,1.20
2023-04-06T05:05:33.123Z,2.70
2023-04-06T05:08:00.337Z,3.40
2023-04-06T05:10:27.378Z,2.50
2023-04-06T05:12:54.330Z,3.70
2023-04-06T05:15:21.438Z,1.90
2023-04-06T05:17:48.512Z,2.90
2023-04-06T05:20:15.854Z,3.10
2023-04-06T05:22:43.416Z,1.40
2023-04-06T05:25:10.706Z,2.40
2023-04-06T05:27:37.678Z,1.80
2023-04-06T05:30:05.276Z,2.70
2023-04-06T05:32:32.237Z,1.60
2023-04-06T05:34:59.173Z,3.10
2023-04-06T05:37:26.247Z,3.50
2023-04-06T05:39:53.210Z,2.50
2023-04-06T05:42:20.089Z,1.90
2023-04-06T05:44:47.057Z,2.60
2023-04-06T05:47:14.039Z,3.50
2023-04-06T05:49:43.341Z,3.60
2023-04-06T05:52:11.238Z,2.60
2023-04-06T05:54:38.360Z,3.30
2023-04-06T05:57:05.415Z,2.90
2023-04-06T05:59:32.975Z,3.30
2023-04-06T06:02:02.211Z,3.20
2023-04-06T06:04:29.378Z,4.30
2023-04-06T06:06:56.375Z,3.50
2023-04-06T06:09:23.392Z,2.60
2023-04-06T06:11:50.985Z,2.80
2023-04-06T06:14:18.105Z,3.10
2023-04-06T06:16:45.222Z,3.80
2023-04-06T06:19:12.417Z,3.40
2023-04-06T06:21:39.308Z,2.90
2023-04-06T06:24:06.892Z,4.80
2023-04-06T06:26:33.936Z,3.00
2023-04-06T06:29:00.971Z,4.20
2023-04-06T06:31:28.008Z,4.30
2023-04-06T06:33:54.971Z,3.60
2023-04-06T06:36:21.954Z,3.20
2023-04-06T06:38:48.973Z,3.30
2023-04-06T06:41:16.885Z,5.20
2023-04-06T06:43:44.002Z,4.70
2023-04-06T06:46:11.043Z,3.40
2023-04-06T06:48:37.998Z,3.80
2023-04-06T06:51:05.057Z,5.00
2023-04-06T06:53:32.144Z,3.60
2023-04-06T06:55:59.201Z,3.70
2023-04-06T06:58:26.417Z,3.80
2023-04-06T07:00:58.666Z,4.60
2023-04-06T07:03:26.144Z,3.90
2023-04-06T07:05:56.177Z,4.10
2023-04-06T07:08:26.132Z,4.10
2023-04-06T07:10:54.066Z,4.50
2023-04-06T07:13:25.105Z,4.30
2023-04-06T07:15:52.831Z,4.70
2023-04-06T07:18:20.938Z,4.20
2023-04-06T07:20:48.260Z,4.20
2023-04-06T07:23:15.273Z,4.20
2023-04-06T07:25:43.003Z,4.30
2023-04-06T07:28:10.003Z,4.30
2023-04-06T07:30:38.873Z,4.40
2023-04-06T07:33:06.739Z,5.10
2023-04-06T07:35:35.941Z,4.60
2023-04-06T07:38:03.464Z,5.20
2023-04-06T07:40:33.736Z,4.90
2023-04-06T07:43:00.937Z,4.90
2023-04-06T07:45:27.944Z,5.10
2023-04-06T07:47:55.138Z,5.00
2023-04-06T07:50:22.396Z,4.90
2023-04-06T07:52:49.420Z,5.20
2023-04-06T07:55:16.438Z,5.00
2023-04-06T07:57:43.455Z,5.10
2023-04-06T08:00:11.196Z,5.10
2023-04-06T08:02:38.357Z,5.20
2023-04-06T08:05:06.759Z,6.00
2023-04-06T08:07:33.798Z,5.30
2023-04-06T08:10:00.819Z,5.30
2023-04-06T08:12:27.899Z,5.20
2023-04-06T08:14:54.856Z,5.20
2023-04-06T08:17:21.890Z,5.20
2023-04-06T08:19:48.961Z,5.20
2023-04-06T08:22:15.943Z,5.20
2023-04-06T08:24:42.977Z,5.10
2023-04-06T08:27:10.224Z,5.30
2023-04-06T08:29:37.211Z,5.40
2023-04-06T08:32:06.084Z,5.20
2023-04-06T08:34:34.420Z,5.30
2023-04-06T08:37:01.568Z,5.30
2023-04-06T08:39:31.578Z,5.30
2023-04-06T08:42:00.739Z,5.40
2023-04-06T08:44:28.065Z,5.40
2023-04-06T08:46:55.878Z,5.40
2023-04-06T08:49:23.557Z,5.50
2023-04-06T08:51:51.974Z,5.50
2023-04-06T08:54:19.141Z,5.60
2023-04-06T08:56:47.248Z,5.70
2023-04-06T08:59:14.734Z,5.70
2023-04-06T09:01:43.848Z,5.70
2023-04-06T09:04:13.739Z,5.80
2023-04-06T09:06:42.043Z,5.80
2023-04-06T09:09:09.523Z,5.80
2023-04-06T09:11:48.198Z,5.80
2023-04-06T09:14:16.462Z,5.90
2023-04-06T09:16:46.922Z,5.90
2023-04-06T09:19:14.187Z,5.80
2023-04-06T09:21:41.274Z,6.10
2023-04-06T09:24:11.429Z,5.80
2023-04-06T09:26:48.534Z,5.90
2023-04-06T09:29:28.119Z,6.00
2023-04-06T09:32:07.925Z,6.20
2023-04-06T09:34:35.371Z,6.20
2023-04-06T09:37:13.418Z,6.20
2023-04-06T09:39:40.624Z,6.30
2023-04-06T09:42:07.676Z,6.30
2023-04-06T09:44:35.296Z,6.20
2023-04-06T09:47:07.265Z,6.30
2023-04-06T09:49:35.736Z,6.20
2023-04-06T09:52:08.291Z,6.20
2023-04-06T09:54:36.697Z,6.10
2023-04-06T09:57:26.903Z,6.20
2023-04-06T10:00:15.551Z,6.20
2023-04-06T10:02:54.461Z,6.30
2023-04-06T10:05:37.342Z,6.30
2023-04-06T10:08:10.963Z,6.40
2023-04-06T10:10:39.194Z,6.60
2023-04-06T10:13:07.078Z,6.70
2023-04-06T10:15:34.788Z,6.80
2023-04-06T10:18:03.356Z,6.90
2023-04-06T10:20:36.638Z,7.00
2023-04-06T10:23:11.969Z,7.10
2023-04-06T10:25:39.004Z,7.20
2023-04-06T10:28:12.505Z,7.40
2023-04-06T10:30:44.534Z,7.60
2023-04-06T10:33:20.497Z,7.70
2023-04-06T10:35:48.005Z,7.70
2023-04-06T10:38:15.612Z,7.80
2023-04-06T10:40:44.144Z,7.90
2023-04-06T10:43:22.135Z,7.80
2023-04-06T10:46:01.691Z,7.80
2023-04-06T10:48:43.106Z,7.80
2023-04-06T10:51:16.216Z,7.80
2023-04-06T10:53:49.194Z,7.80
2023-04-06T10:56:18.439Z,7.90
2023-04-06T10:58:50.218Z,7.90
2023-04-06T11:01:19.024Z,7.90
2023-04-06T11:03:55.628Z,7.90
2023-04-06T11:06:29.951Z,7.90
2023-04-06T11:08:57.803Z,7.90
2023-04-06T11:11:27.495Z,7.80
2023-04-06T11:14:00.171Z,7.90
2023-04-06T11:16:36.588Z,7.80
2023-04-06T11:19:07.410Z,7.50
2023-04-06T11:21:54.969Z,7.30
2023-04-06T11:24:25.930Z,7.20
2023-04-06T11:26:58.840Z,7.20
2023-04-06T11:29:30.013Z,7.10
2023-04-06T11:32:03.101Z,7.10
2023-04-06T11:34:31.830Z,6.90
2023-04-06T11:37:01.097Z,7.70
2023-04-06T11:39:29.873Z,6.80
2023-04-06T11:42:00.982Z,6.70
2023-04-06T11:44:46.993Z,6.60
2023-04-06T11:47:14.474Z,6.60
2023-04-06T11:49:45.708Z,6.40
2023-04-06T11:52:26.082Z,6.30
2023-04-06T11:54:55.363Z,6.30
2023-04-06T11:57:26.790Z,6.20
2023-04-06T11:59:53.995Z,6.00
2023-04-06T12:02:21.151Z,6.00
2023-04-06T12:04:48.450Z,5.90
2023-04-06T12:07:15.687Z,5.70
2023-04-06T12:09:44.660Z,5.60
2023-04-06T12:12:12.068Z,5.50
2023-04-06T12:14:39.166Z,5.30
2023-04-06T12:17:06.271Z,5.20
2023-04-06T12:19:33.219Z,4.90
2023-04-06T12:22:00.257Z,5.70
2023-04-06T12:24:28.676Z,5.10
2023-04-06T12:27:08.424Z,5.30
2023-04-06T12:29:36.831Z,5.00
2023-04-06T12:32:03.827Z,5.00
2023-04-06T12:34:31.176Z,4.90
2023-04-06T12:36:58.446Z,5.10
2023-04-06T12:39:26.311Z,5.00
2023-04-06T12:41:53.972Z,4.90
2023-04-06T12:44:20.910Z,4.80
2023-04-06T12:46:47.904Z,4.50
2023-04-06T12:49:17.658Z,4.90
2023-04-06T12:51:44.569Z,4.90
2023-04-06T12:54:12.871Z,5.30
2023-04-06T12:56:40.516Z,5.10
2023-04-06T12:59:07.634Z,5.00
2023-04-06T13:01:34.775Z,4.90
2023-04-06T13:04:01.801Z,5.00
2023-04-06T13:06:29.607Z,5.20
2023-04-06T13:08:57.044Z,5.00
2023-04-06T13:11:26.273Z,4.90
2023-04-06T13:13:55.101Z,5.60
2023-04-06T13:16:22.252Z,5.00
2023-04-06T13:18:52.150Z,4.90
2023-04-06T13:21:20.782Z,4.80
2023-04-06T13:23:47.769Z,5.10
2023-04-06T13:26:16.060Z,4.90
2023-04-06T13:28:43.531Z,4.80
2023-04-06T13:31:11.025Z,4.80
2023-04-06T13:33:39.376Z,4.80
2023-04-06T13:36:08.975Z,4.80
2023-04-06T13:38:36.070Z,4.70
2023-04-06T13:41:02.999Z,5.00
2023-04-06T13:43:29.995Z,4.90
2023-04-06T13:46:00.742Z,5.20
2023-04-06T13:48:28.007Z,5.10
2023-04-06T13:50:54.893Z,5.20
2023-04-06T13:53:21.781Z,4.70
2023-04-06T13:55:56.504Z,4.70
2023-04-06T13:58:24.115Z,4.70
2023-04-06T14:00:51.783Z,4.60
2023-04-06T14:03:19.308Z,4.60
2023-04-06T14:05:46.771Z,6.40
2023-04-06T14:08:13.777Z,7.00
2023-04-06T14:10:43.123Z,7.50
2023-04-06T14:13:10.505Z,4.50
2023-04-06T14:15:37.638Z,7.80
2023-04-06T14:18:04.783Z,4.40
2023-04-06T14:20:35.691Z,4.50
2023-04-06T14:23:03.607Z,4.30
2023-04-06T14:25:35.435Z,4.30
2023-04-06T14:28:02.843Z,6.20
2023-04-06T14:30:31.785Z,6.80
2023-04-06T14:32:59.369Z,4.20
2023-04-06T14:35:29.041Z,4.30
2023-04-06T14:37:59.021Z,4.30
2023-04-06T14:40:26.399Z,4.20
2023-04-06T14:42:53.326Z,6.20
2023-04-06T14:45:22.606Z,4.20
2023-04-06T14:47:49.846Z,4.10
2023-04-06T14:50:16.933Z,4.10
2023-04-06T14:52:43.796Z,4.00
2023-04-06T14:55:10.705Z,6.30
2023-04-06T14:57:37.630Z,3.90
2023-04-06T15:00:05.326Z,3.80
2023-04-06T15:02:34.035Z,3.80
2023-04-06T15:05:01.221Z,3.70
2023-04-06T15:07:28.591Z,3.70
2023-04-06T15:09:55.548Z,3.70
2023-04-06T15:12:22.481Z,3.70
2023-04-06T15:14:49.411Z,5.50
2023-04-06T15:17:16.466Z,3.70
2023-04-06T15:19:43.490Z,5.90
2023-04-06T15:22:12.432Z,3.70
2023-04-06T15:24:39.496Z,3.70
2023-04-06T15:27:06.604Z,3.80
2023-04-06T15:29:33.578Z,6.40
2023-04-06T15:32:00.601Z,3.80
2023-04-06T15:34:31.200Z,3.90
2023-04-06T15:37:02.551Z,3.60
2023-04-06T15:39:29.503Z,3.80
2023-04-06T15:41:57.603Z,5.50
2023-04-06T15:44:25.672Z,3.90
2023-04-06T15:46:53.703Z,6.10
2023-04-06T15:49:21.442Z,6.00
2023-04-06T15:51:49.440Z,6.60
2023-04-06T15:54:16.583Z,4.00
2023-04-06T15:56:44.021Z,3.90
2023-04-06T15:59:11.018Z,3.90
2023-04-06T16:01:38.173Z,3.90
2023-04-06T16:04:09.048Z,3.90
2023-04-06T16:06:36.214Z,3.90
2023-04-06T16:09:03.188Z,3.70
2023-04-06T16:11:30.324Z,5.60
2023-04-06T16:13:57.497Z,5.70
2023-04-06T16:16:24.685Z,3.70
2023-04-06T16:18:51.638Z,3.70
2023-04-06T16:21:19.155Z,3.70
2023-04-06T16:23:47.875Z,4.60
2023-04-06T16:26:18.030Z,3.70
2023-04-06T16:28:45.751Z,3.70
2023-04-06T16:31:20.119Z,3.70
2023-04-06T16:33:48.510Z,3.70
2023-04-06T16:36:22.150Z,6.60
2023-04-06T16:38:49.264Z,5.10
2023-04-06T16:41:16.294Z,3.70
2023-04-06T16:43:43.294Z,4.10
2023-04-06T16:46:10.475Z,5.00
2023-04-06T16:48:37.449Z,3.60
2023-04-06T16:51:06.644Z,3.70
2023-04-06T16:53:37.687Z,3.70
2023-04-06T16:56:06.329Z,3.60
2023-04-06T16:58:37.875Z,3.60
2023-04-06T17:01:05.905Z,3.60
2023-04-06T17:03:35.222Z,3.80
2023-04-06T17:06:02.258Z,3.60
2023-04-06T17:08:29.161Z,3.50
2023-04-06T17:11:02.715Z,3.60
2023-04-06T17:13:30.848Z,3.60
2023-04-06T17:15:57.777Z,3.50
2023-04-06T17:18:24.695Z,3.50
2023-04-06T17:20:51.620Z,3.60
2023-04-06T17:23:18.714Z,3.50
2023-04-06T17:25:45.647Z,3.50
2023-04-06T17:28:12.598Z,3.50
2023-04-06T17:30:41.049Z,6.10
2023-04-06T17:33:08.220Z,3.50
2023-04-06T17:35:35.447Z,3.50
2023-04-06T17:38:02.720Z,3.50
2023-04-06T17:40:29.674Z,3.50
2023-04-06T17:42:56.562Z,3.50
2023-04-06T17:45:23.373Z,4.00
2023-04-06T17:47:50.316Z,3.50
2023-04-06T17:50:17.372Z,3.50
2023-04-06T17:55:12.148Z,3.40
2023-04-06T17:57:41.121Z,3.40
2023-04-06T18:00:11.930Z,5.60
2023-04-06T18:02:39.152Z,3.30
2023-04-06T18:05:07.078Z,3.40
2023-04-06T18:07:33.972Z,3.30
2023-04-06T18:10:01.912Z,3.40
2023-04-06T18:12:28.869Z,5.80
2023-04-06T18:14:55.932Z,6.40
2023-04-06T18:17:22.871Z,3.30
2023-04-06T18:19:49.814Z,3.30
2023-04-06T18:22:16.700Z,3.30
2023-04-06T18:24:43.606Z,3.30
2023-04-06T18:27:15.384Z,3.40
2023-04-06T18:29:45.215Z,3.40
2023-04-06T18:32:14.290Z,3.40
2023-04-06T18:34:41.432Z,3.40
2023-04-06T18:37:08.455Z,3.40
2023-04-06T18:39:36.241Z,6.10
2023-04-06T18:42:03.897Z,6.50
2023-04-06T18:44:33.812Z,4.60
2023-04-06T18:47:01.169Z,3.40
2023-04-06T18:49:28.148Z,3.40
2023-04-06T18:51:56.215Z,3.40
2023-04-06T18:54:23.084Z,6.20
2023-04-06T18:56:50.535Z,3.40
2023-04-06T18:59:17.832Z,5.60
2023-04-06T19:01:46.804Z,5.50
2023-04-06T19:04:14.126Z,6.60
2023-04-06T19:06:41.247Z,3.50
2023-04-06T19:09:08.289Z,3.50
2023-04-06T19:11:36.815Z,3.50
2023-04-06T19:14:03.871Z,3.50
2023-04-06T19:16:30.834Z,5.60
2023-04-06T19:18:59.791Z,3.50
2023-04-06T19:21:27.428Z,3.50
2023-04-06T19:23:55.900Z,3.50
2023-04-06T19:26:24.286Z,3.50
2023-04-06T19:28:51.481Z,3.50
2023-04-06T19:31:19.378Z,3.50
2023-04-06T19:33:47.770Z,3.50
2023-04-06T19:36:16.041Z,3.50
2023-04-06T19:38:43.295Z,3.50
2023-04-06T19:41:10.378Z,3.50
2023-04-06T19:43:37.398Z,3.50
2023-04-06T19:46:04.805Z,3.50
2023-04-06T19:48:33.807Z,3.50
2023-04-06T19:51:00.852Z,3.50
2023-04-06T19:53:27.893Z,3.50
2023-04-06T19:55:54.962Z,3.60
2023-04-06T19:58:21.990Z,3.60
2023-04-06T20:00:48.914Z,3.60
2023-04-06T20:03:16.117Z,4.10
2023-04-06T20:05:43.280Z,3.60
2023-04-06T20:08:10.361Z,3.60
2023-04-06T20:10:37.290Z,3.70
2023-04-06T20:13:04.193Z,3.60
2023-04-06T20:15:31.216Z,3.50
2023-04-06T20:17:58.175Z,3.60
2023-04-06T20:20:25.291Z,3.60
2023-04-06T20:22:52.296Z,5.40
2023-04-06T20:25:19.954Z,3.60
2023-04-06T20:27:46.876Z,3.60
2023-04-06T20:30:15.303Z,6.40
2023-04-06T20:32:42.424Z,3.50
2023-04-06T20:35:09.791Z,3.50
2023-04-06T20:37:37.949Z,3.50
2023-04-06T20:40:07.418Z,3.50
2023-04-06T20:42:34.491Z,3.50
2023-04-06T20:45:03.171Z,3.50
2023-04-06T20:47:31.590Z,5.90
2023-04-06T20:49:58.880Z,3.50
2023-04-06T20:52:26.789Z,6.50
2023-04-06T20:54:54.857Z,3.50
2023-04-06T20:57:22.644Z,3.50
2023-04-06T20:59:49.679Z,3.60
2023-04-06T21:02:17.477Z,3.50
2023-04-06T21:04:44.943Z,3.60
2023-04-06T21:07:12.292Z,3.60
2023-04-06T21:09:40.833Z,3.60
2023-04-06T21:12:08.078Z,3.60
2023-04-06T21:14:35.061Z,3.60
2023-04-06T21:17:02.294Z,3.50
2023-04-06T21:19:29.299Z,3.50
2023-04-06T21:21:56.528Z,3.50
2023-04-06T21:24:23.549Z,3.50
2023-04-06T21:26:50.531Z,3.50
2023-04-06T21:29:17.558Z,3.50
2023-04-06T21:31:44.618Z,3.50
2023-04-06T21:34:12.410Z,3.50
2023-04-06T21:36:41.350Z,6.50
2023-04-06T21:39:08.687Z,6.40
2023-04-06T21:41:36.200Z,6.20
2023-04-06T21:44:03.234Z,3.50
2023-04-06T21:46:30.442Z,3.40
2023-04-06T21:48:57.470Z,3.50
2023-04-06T21:51:24.648Z,3.50
2023-04-06T21:53:53.772Z,3.40
2023-04-06T21:56:22.940Z,3.40
2023-04-06T21:58:51.046Z,3.40
2023-04-06T22:01:19.500Z,3.40
2023-04-06T22:03:47.218Z,3.30
2023-04-06T22:06:14.324Z,3.30
2023-04-06T22:08:41.346Z,3.40
2023-04-06T22:11:11.311Z,3.40
2023-04-06T22:13:39.246Z,3.40
2023-04-06T22:16:06.772Z,6.40
2023-04-06T22:18:36.049Z,3.40
2023-04-06T22:21:04.336Z,3.40
2023-04-06T22:23:34.406Z,3.40
2023-04-06T22:26:01.506Z,5.60
2023-04-06T22:28:28.495Z,3.30
2023-04-06T22:30:55.403Z,3.30
2023-04-06T22:33:22.317Z,3.30
2023-04-06T22:35:49.233Z,5.10
2023-04-06T22:38:16.303Z,3.30
2023-04-06T22:40:43.164Z,3.30
2023-04-06T22:43:10.376Z,3.40
2023-04-06T22:45:37.369Z,3.30
2023-04-06T22:48:04.393Z,5.90
2023-04-06T22:50:31.607Z,5.10
2023-04-06T22:52:58.548Z,3.40
2023-04-06T22:55:25.473Z,3.40
2023-04-06T22:57:52.350Z,3.40
2023-04-06T23:00:19.478Z,3.40
2023-04-06T23:02:46.550Z,5.40
2023-04-06T23:05:13.591Z,6.10
2023-04-06T23:07:40.600Z,3.40
2023-04-06T23:10:08.060Z,3.40
2023-04-06T23:12:34.911Z,3.40
2023-04-06T23:15:01.790Z,3.40
2023-04-06T23:17:28.793Z,3.40
2023-04-06T23:19:55.771Z,3.40
2023-04-06T23:22:22.781Z,3.50
2023-04-06T23:24:50.105Z,3.50
2023-04-06T23:27:17.043Z,3.50
2023-04-06T23:29:43.915Z,5.80
2023-04-06T23:32:11.006Z,3.50
2023-04-06T23:34:38.077Z,3.40
2023-04-06T23:37:05.110Z,3.50
2023-04-06T23:39:32.068Z,3.50
2023-04-06T23:41:58.993Z,3.50
2023-04-06T23:44:30.733Z,3.50
2023-04-06T23:46:57.960Z,3.40
2023-04-06T23:49:24.998Z,3.50
2023-04-06T23:51:51.911Z,3.50
2023-04-06T23:54:18.852Z,3.50
2023-04-06T23:56:46.432Z,3.50
2023-04-06T23:59:13.332Z,6.50
